Time,TemperatureF,DewpointF,PressureIn,WindDirection,WindDirectionDegrees,WindSpeedMPH,WindSpeedGustMPH,Humidity,HourlyPrecipIn,Conditions,Clouds,dailyrainin,SoftwareType,DateUTC
2013-01-23 00:12:00,23.0,9.0,-100.00,West,277,1.0,4.0,54,0.00,,,0.00,,2013-01-23 07:12:00,
2013-01-23 00:22:00,23.0,9.0,-100.00,West,277,1.0,4.0,54,0.00,,,0.00,,2013-01-23 07:22:00,
2013-01-23 00:33:00,23.0,9.0,-100.00,West,277,1.0,4.0,54,0.00,,,0.00,,2013-01-23 07:33:00,
2013-01-23 00:42:00,23.0,9.0,-100.00,West,277,1.0,4.0,54,0.00,,,0.00,,2013-01-23 07:42:00,
2013-01-23 00:52:00,23.0,9.0,-100.00,West,277,1.0,4.0,54,0.00,,,0.00,,2013-01-23 07:52:00,
2013-01-23 01:22:00,24.0,12.0,-100.00,WNW,287,1.0,3.0,59,0.00,,,0.00,,2013-01-23 08:22:00,
2013-01-23 01:33:00,24.0,12.0,-100.00,WNW,287,1.0,3.0,59,0.00,,,0.00,,2013-01-23 08:33:00,
2013-01-23 01:42:00,24.0,12.0,-100.00,WNW,287,1.0,3.0,59,0.00,,,0.00,,2013-01-23 08:42:00,
2013-01-23 01:52:00,24.0,12.0,-100.00,WNW,287,1.0,3.0,59,0.00,,,0.00,,2013-01-23 08:52:00,
2013-01-23 02:12:00,21.0,9.0,-100.00,West,276,1.0,3.0,59,0.00,,,0.00,,2013-01-23 09:12:00,
2013-01-23 02:22:00,21.0,9.0,-100.00,West,276,1.0,3.0,59,0.00,,,0.00,,2013-01-23 09:22:00,
2013-01-23 02:32:00,21.0,9.0,-100.00,West,276,1.0,3.0,59,0.00,,,0.00,,2013-01-23 09:32:00,
2013-01-23 02:43:00,21.0,9.0,-100.00,West,276,1.0,3.0,59,0.00,,,0.00,,2013-01-23 09:43:00,
2013-01-23 02:52:00,21.0,9.0,-100.00,West,276,1.0,3.0,59,0.00,,,0.00,,2013-01-23 09:52:00,
2013-01-23 03:12:00,18.0,10.0,-100.00,West,279,1.0,3.0,70,0.00,,,0.00,,2013-01-23 10:12:00,
2013-01-23 03:23:00,18.0,10.0,-100.00,West,279,1.0,3.0,70,0.00,,,0.00,,2013-01-23 10:23:00,
2013-01-23 03:33:00,18.0,10.0,-100.00,West,279,1.0,3.0,70,0.00,,,0.00,,2013-01-23 10:33:00,
2013-01-23 03:43:00,18.0,10.0,-100.00,West,279,1.0,3.0,70,0.00,,,0.00,,2013-01-23 10:43:00,
2013-01-23 03:52:00,18.0,10.0,-100.00,West,279,1.0,3.0,70,0.00,,,0.00,,2013-01-23 10:52:00,
2013-01-23 04:12:00,18.0,7.0,-100.00,West,275,2.0,5.0,61,0.00,,,0.00,,2013-01-23 11:12:00,
2013-01-23 04:23:00,18.0,7.0,-100.00,West,275,2.0,5.0,61,0.00,,,0.00,,2013-01-23 11:23:00,
2013-01-23 04:33:00,18.0,7.0,-100.00,West,275,2.0,5.0,61,0.00,,,0.00,,2013-01-23 11:33:00,
2013-01-23 04:43:00,18.0,7.0,-100.00,West,275,2.0,5.0,61,0.00,,,0.00,,2013-01-23 11:43:00,
2013-01-23 04:52:00,18.0,7.0,-100.00,West,275,2.0,5.0,61,0.00,,,0.00,,2013-01-23 11:52:00,
2013-01-23 05:12:00,17.0,9.0,-100.00,North,350,1.0,4.0,69,0.00,,,0.00,,2013-01-23 12:12:00,
2013-01-23 05:22:00,17.0,9.0,-100.00,North,350,1.0,4.0,69,0.00,,,0.00,,2013-01-23 12:22:00,
2013-01-23 05:33:00,17.0,9.0,-100.00,North,350,1.0,4.0,69,0.00,,,0.00,,2013-01-23 12:33:00,
2013-01-23 05:43:00,17.0,9.0,-100.00,North,350,1.0,4.0,69,0.00,,,0.00,,2013-01-23 12:43:00,
2013-01-23 05:52:00,17.0,9.0,-100.00,North,350,1.0,4.0,69,0.00,,,0.00,,2013-01-23 12:52:00,
2013-01-23 06:13:00,16.0,8.0,-100.00,NNE,13,1.0,3.0,69,0.00,,,0.00,,2013-01-23 13:13:00,
2013-01-23 06:23:00,16.0,8.0,-100.00,NNE,13,1.0,3.0,69,0.00,,,0.00,,2013-01-23 13:23:00,
2013-01-23 06:33:00,16.0,8.0,-100.00,NNE,13,1.0,3.0,69,0.00,,,0.00,,2013-01-23 13:33:00,
2013-01-23 06:42:00,16.0,8.0,-100.00,NNE,13,1.0,3.0,69,0.00,,,0.00,,2013-01-23 13:42:00,
2013-01-23 06:52:00,16.0,8.0,-100.00,NNE,13,1.0,3.0,69,0.00,,,0.00,,2013-01-23 13:52:00,
2013-01-23 06:53:00,12.0,6.0,-100.00,NW,305,1.0,3.0,75,0.00,,,0.00,,2013-01-23 13:53:00,
2013-01-23 07:12:00,12.0,6.0,-100.00,NW,305,1.0,3.0,75,0.00,,,0.00,,2013-01-23 14:12:00,
2013-01-23 07:23:00,12.0,6.0,-100.00,NW,305,1.0,3.0,75,0.00,,,0.00,,2013-01-23 14:23:00,
2013-01-23 07:33:00,12.0,6.0,-100.00,NW,305,1.0,3.0,75,0.00,,,0.00,,2013-01-23 14:33:00,
2013-01-23 07:43:00,12.0,6.0,-100.00,NW,305,1.0,3.0,75,0.00,,,0.00,,2013-01-23 14:43:00,
2013-01-23 07:53:00,20.0,15.0,-100.00,NNE,26,2.0,6.0,79,0.00,,,0.00,,2013-01-23 14:53:00,
2013-01-23 08:12:00,20.0,15.0,-100.00,NNE,26,2.0,6.0,79,0.00,,,0.00,,2013-01-23 15:12:00,
2013-01-23 08:23:00,20.0,15.0,-100.00,NNE,26,2.0,6.0,79,0.00,,,0.00,,2013-01-23 15:23:00,
2013-01-23 08:33:00,20.0,15.0,-100.00,NNE,26,2.0,6.0,79,0.00,,,0.00,,2013-01-23 15:33:00,
2013-01-23 08:43:00,20.0,15.0,-100.00,NNE,26,2.0,6.0,79,0.00,,,0.00,,2013-01-23 15:43:00,
2013-01-23 09:23:00,32.0,16.0,-100.00,North,5,2.0,9.0,52,0.00,,,0.00,,2013-01-23 16:23:00,
2013-01-23 09:33:00,32.0,16.0,-100.00,North,5,2.0,9.0,52,0.00,,,0.00,,2013-01-23 16:33:00,
2013-01-23 09:42:00,32.0,16.0,-100.00,North,5,2.0,9.0,52,0.00,,,0.00,,2013-01-23 16:42:00,
2013-01-23 09:52:00,32.0,16.0,-100.00,North,5,2.0,9.0,52,0.00,,,0.00,,2013-01-23 16:52:00,
2013-01-23 10:23:00,41.0,14.0,-100.00,North,6,3.0,9.0,33,0.00,,,0.00,,2013-01-23 17:23:00,
2013-01-23 10:33:00,41.0,14.0,-100.00,North,6,3.0,9.0,33,0.00,,,0.00,,2013-01-23 17:33:00,
2013-01-23 10:42:00,41.0,14.0,-100.00,North,6,3.0,9.0,33,0.00,,,0.00,,2013-01-23 17:42:00,
2013-01-23 10:52:00,41.0,14.0,-100.00,North,6,3.0,9.0,33,0.00,,,0.00,,2013-01-23 17:52:00,
2013-01-23 11:12:00,46.0,14.0,-100.00,NNE,13,3.0,8.0,27,0.00,,,0.00,,2013-01-23 18:12:00,
2013-01-23 11:23:00,46.0,14.0,-100.00,NNE,13,3.0,8.0,27,0.00,,,0.00,,2013-01-23 18:23:00,
2013-01-23 11:33:00,46.0,14.0,-100.00,NNE,13,3.0,8.0,27,0.00,,,0.00,,2013-01-23 18:33:00,
2013-01-23 11:43:00,46.0,14.0,-100.00,NNE,13,3.0,8.0,27,0.00,,,0.00,,2013-01-23 18:43:00,
2013-01-23 11:52:00,46.0,14.0,-100.00,NNE,13,3.0,8.0,27,0.00,,,0.00,,2013-01-23 18:52:00,
2013-01-23 12:13:00,50.0,12.0,-100.00,SW,233,2.0,6.0,21,0.00,,,0.00,,2013-01-23 19:13:00,
2013-01-23 12:23:00,50.0,12.0,-100.00,SW,233,2.0,6.0,21,0.00,,,0.00,,2013-01-23 19:23:00,
2013-01-23 12:33:00,50.0,12.0,-100.00,SW,233,2.0,6.0,21,0.00,,,0.00,,2013-01-23 19:33:00,
2013-01-23 12:43:00,50.0,12.0,-100.00,SW,233,2.0,6.0,21,0.00,,,0.00,,2013-01-23 19:43:00,
2013-01-23 12:52:00,50.0,12.0,-100.00,SW,233,2.0,6.0,21,0.00,,,0.00,,2013-01-23 19:52:00,
2013-01-23 12:53:00,55.0,11.0,-100.00,SE,133,3.0,8.0,17,0.00,,,0.00,,2013-01-23 19:53:00,
2013-01-23 13:23:00,55.0,11.0,-100.00,SE,133,3.0,8.0,17,0.00,,,0.00,,2013-01-23 20:23:00,
2013-01-23 13:33:00,55.0,11.0,-100.00,SE,133,3.0,8.0,17,0.00,,,0.00,,2013-01-23 20:33:00,
2013-01-23 13:43:00,55.0,11.0,-100.00,SE,133,3.0,8.0,17,0.00,,,0.00,,2013-01-23 20:43:00,
2013-01-23 14:12:00,56.0,7.0,-100.00,ESE,120,3.0,8.0,14,0.00,,,0.00,,2013-01-23 21:12:00,
2013-01-23 14:23:00,56.0,7.0,-100.00,ESE,120,3.0,8.0,14,0.00,,,0.00,,2013-01-23 21:23:00,
2013-01-23 14:33:00,56.0,7.0,-100.00,ESE,120,3.0,8.0,14,0.00,,,0.00,,2013-01-23 21:33:00,
2013-01-23 14:42:00,56.0,7.0,-100.00,ESE,120,3.0,8.0,14,0.00,,,0.00,,2013-01-23 21:42:00,
2013-01-23 14:52:00,56.0,7.0,-100.00,ESE,120,3.0,8.0,14,0.00,,,0.00,,2013-01-23 21:52:00,
2013-01-23 15:23:00,59.0,8.0,-100.00,SE,139,3.0,8.0,13,0.00,,,0.00,,2013-01-23 22:23:00,
2013-01-23 15:33:00,59.0,8.0,-100.00,SE,139,3.0,8.0,13,0.00,,,0.00,,2013-01-23 22:33:00,
2013-01-23 15:42:00,59.0,8.0,-100.00,SE,139,3.0,8.0,13,0.00,,,0.00,,2013-01-23 22:42:00,
2013-01-23 15:52:00,59.0,8.0,-100.00,SE,139,3.0,8.0,13,0.00,,,0.00,,2013-01-23 22:52:00,
2013-01-23 16:13:00,60.0,7.0,-100.00,SSE,165,2.0,6.0,12,0.00,,,0.00,,2013-01-23 23:13:00,
2013-01-23 16:23:00,60.0,7.0,-100.00,SSE,165,2.0,6.0,12,0.00,,,0.00,,2013-01-23 23:23:00,
2013-01-23 16:33:00,60.0,7.0,-100.00,SSE,165,2.0,6.0,12,0.00,,,0.00,,2013-01-23 23:33:00,
2013-01-23 16:43:00,60.0,7.0,-100.00,SSE,165,2.0,6.0,12,0.00,,,0.00,,2013-01-23 23:43:00,
2013-01-23 16:52:00,60.0,7.0,-100.00,SSE,165,2.0,6.0,12,0.00,,,0.00,,2013-01-23 23:52:00,
2013-01-23 16:53:00,56.0,4.0,-100.00,South,171,1.0,4.0,12,0.00,,,0.00,,2013-01-23 23:53:00,
2013-01-23 17:12:00,56.0,4.0,-100.00,South,171,1.0,4.0,12,0.00,,,0.00,,2013-01-24 00:12:00,
2013-01-23 17:22:00,56.0,4.0,-100.00,South,171,1.0,4.0,12,0.00,,,0.00,,2013-01-24 00:22:00,
2013-01-23 17:32:00,56.0,4.0,-100.00,South,171,1.0,4.0,12,0.00,,,0.00,,2013-01-24 00:32:00,
2013-01-23 17:42:00,56.0,4.0,-100.00,South,171,1.0,4.0,12,0.00,,,0.00,,2013-01-24 00:42:00,
2013-01-23 18:23:00,41.0,2.0,-100.00,SSW,193,0.0,1.0,19,0.00,,,0.00,,2013-01-24 01:23:00,
2013-01-23 18:33:00,41.0,2.0,-100.00,SSW,193,0.0,1.0,19,0.00,,,0.00,,2013-01-24 01:33:00,
2013-01-23 18:42:00,41.0,2.0,-100.00,SSW,193,0.0,1.0,19,0.00,,,0.00,,2013-01-24 01:42:00,
2013-01-23 18:52:00,41.0,2.0,-100.00,SSW,193,0.0,1.0,19,0.00,,,0.00,,2013-01-24 01:52:00,
2013-01-23 19:12:00,37.0,5.0,-100.00,WSW,253,2.0,3.0,26,0.00,,,0.00,,2013-01-24 02:12:00,
2013-01-23 19:22:00,37.0,5.0,-100.00,WSW,253,2.0,3.0,26,0.00,,,0.00,,2013-01-24 02:22:00,
2013-01-23 19:33:00,37.0,5.0,-100.00,WSW,253,2.0,3.0,26,0.00,,,0.00,,2013-01-24 02:33:00,
2013-01-23 19:42:00,37.0,5.0,-100.00,WSW,253,2.0,3.0,26,0.00,,,0.00,,2013-01-24 02:42:00,
2013-01-23 19:52:00,37.0,5.0,-100.00,WSW,253,2.0,3.0,26,0.00,,,0.00,,2013-01-24 02:52:00,
2013-01-23 20:12:00,33.0,16.0,-100.00,North,5,1.0,3.0,49,0.00,,,0.00,,2013-01-24 03:12:00,
2013-01-23 20:22:00,33.0,16.0,-100.00,North,5,1.0,3.0,49,0.00,,,0.00,,2013-01-24 03:22:00,
2013-01-23 20:33:00,33.0,16.0,-100.00,North,5,1.0,3.0,49,0.00,,,0.00,,2013-01-24 03:33:00,
2013-01-23 20:43:00,33.0,16.0,-100.00,North,5,1.0,3.0,49,0.00,,,0.00,,2013-01-24 03:43:00,
2013-01-23 20:52:00,33.0,16.0,-100.00,North,5,1.0,3.0,49,0.00,,,0.00,,2013-01-24 03:52:00,
2013-01-23 21:22:00,31.0,13.0,-100.00,North,357,1.0,3.0,46,0.00,,,0.00,,2013-01-24 04:22:00,
2013-01-23 21:32:00,31.0,13.0,-100.00,North,357,1.0,3.0,46,0.00,,,0.00,,2013-01-24 04:32:00,
2013-01-23 21:42:00,31.0,13.0,-100.00,North,357,1.0,3.0,46,0.00,,,0.00,,2013-01-24 04:42:00,
2013-01-23 21:52:00,31.0,13.0,-100.00,North,357,1.0,3.0,46,0.00,,,0.00,,2013-01-24 04:52:00,
2013-01-23 22:22:00,27.0,13.0,-100.00,NE,44,0.0,2.0,54,0.00,,,0.00,,2013-01-24 05:22:00,
2013-01-23 22:33:00,27.0,13.0,-100.00,NE,44,0.0,2.0,54,0.00,,,0.00,,2013-01-24 05:33:00,
2013-01-23 22:42:00,27.0,13.0,-100.00,NE,44,0.0,2.0,54,0.00,,,0.00,,2013-01-24 05:42:00,
2013-01-23 22:52:00,27.0,13.0,-100.00,NE,44,0.0,2.0,54,0.00,,,0.00,,2013-01-24 05:52:00,
2013-01-23 23:12:00,27.0,14.0,-100.00,NE,52,1.0,3.0,57,0.00,,,0.00,,2013-01-24 06:12:00,
2013-01-23 23:22:00,27.0,14.0,-100.00,NE,52,1.0,3.0,57,0.00,,,0.00,,2013-01-24 06:22:00,
2013-01-23 23:32:00,27.0,14.0,-100.00,NE,52,1.0,3.0,57,0.00,,,0.00,,2013-01-24 06:32:00,
2013-01-23 23:42:00,27.0,14.0,-100.00,NE,52,1.0,3.0,57,0.00,,,0.00,,2013-01-24 06:42:00,
2013-01-23 23:52:00,27.0,14.0,-100.00,NE,52,1.0,3.0,57,0.00,,,0.00,,2013-01-24 06:52:00,